Flight Track Log - Related Links

Times and Time Zones

All times are in EDT time to prevent confusion due to time zone crossing. See the N10948 flight status page for this flight to view local times or setup timezone preferences in your user account.

Time Position Orientation Groundspeed Altitude Reporting Facility
EDT Latitude Longitude Course Direction KTS MPH feet Rate Location/Type
Sat 02:17:07 PM 39.1167 -94.6000 218° Southwest 75 86 1,300  Level Kansas City TRACON
Sat 02:17:49 PM 39.1000 -94.6167 218° Southwest 80 92 2,000 1,059 Climbing Kansas City TRACON
Sat 02:18:49 PM 39.0833 -94.6333 218° Southwest 82 94 3,100 950 Climbing Kansas City TRACON
Sat 02:19:49 PM 39.0667 -94.6333 180° South 86 99 3,900 850 Climbing Kansas City TRACON
Sat 02:20:49 PM 39.0333 -94.6167 159° South 93 107 4,800 600 Climbing Kansas City TRACON
Sat 02:21:49 PM 39.0333 -94.5667 90° East 130 150 5,100 150 Climbing Kansas City TRACON
Sat 02:22:49 PM 39.0667 -94.5500 21° North 141 162 5,100  Level Kansas City TRACON
Sat 02:23:49 PM 39.1000 -94.5333 21° North 136 157 5,100  Level Kansas City TRACON
Sat 02:24:49 PM 39.1333 -94.5167 21° North 134 154 5,100  Level Kansas City TRACON
Sat 02:25:21 PM 39.1583 -94.5169 360° North 133 153 5,100  Level Kansas City Center
Sat 02:26:22 PM 39.1947 -94.5028 17° North 134 154 5,100  Level Kansas City Center
Sat 02:27:24 PM 39.2317 -94.4881 17° North 135 155 5,100  Level Kansas City Center
Sat 02:28:28 PM 39.2692 -94.4767 13° North 136 157 5,100 -48 Level Kansas City Center
Sat 02:29:28 PM 39.3058 -94.4622 17° North 136 157 5,000 -49 Descending Kansas City Center
Sat 02:30:31 PM 39.3425 -94.4489 16° North 136 157 5,000  Level Kansas City Center
Sat 02:31:30 PM 39.3797 -94.4372 14° North 136 157 5,000  Level Kansas City Center
Sat 02:32:32 PM 39.4236 -94.4228 14° North 136 157 5,000 47 Level Kansas City Center
Sat 02:33:37 PM 39.4600 -94.4092 16° North 137 158 5,100 48 Climbing Kansas City Center
Sat 02:34:37 PM 39.4961 -94.3942 18° North 136 157 5,100  Level Kansas City Center
Sat 02:35:39 PM 39.5331 -94.3806 16° North 137 158 5,100  Level Kansas City Center
Sat 02:36:40 PM 39.5706 -94.3661 17° North 137 158 5,100  Level Kansas City Center
Sat 02:37:43 PM 39.6069 -94.3517 17° North 137 158 5,100  Level Kansas City Center
Sat 02:38:44 PM 39.6511 -94.3325 18° North 138 159 5,100  Level Kansas City Center
Sat 02:39:45 PM 39.6883 -94.3175 17° North 138 159 5,100  Level Kansas City Center
Sat 02:40:48 PM 39.7253 -94.3031 17° North 138 159 5,100  Level Kansas City Center
Sat 02:41:48 PM 39.7625 -94.2906 14° North 138 159 5,100  Level Kansas City Center
Sat 02:42:52 PM 39.7992 -94.2744 19° North 138 159 5,100 -48 Level Kansas City Center
Sat 02:43:53 PM 39.8369 -94.2583 18° North 141 162 5,000 -49 Descending Kansas City Center
Sat 02:44:54 PM 39.8736 -94.2444 16° North 141 162 5,000  Level Kansas City Center
Sat 02:45:58 PM 39.9194 -94.2300 14° North 140 161 5,000  Level Kansas City Center
Sat 02:46:59 PM 39.9550 -94.2136 19° North 140 161 5,000 49 Level Kansas City Center
Sat 02:48:00 PM 39.9914 -94.2022 13° North 138 159 5,100  Climbing Kansas City Center
Sat 02:49:03 PM 40.0283 -94.1878 17° North 138 159 5,000 -48 Descending Kansas City Center
Sat 02:50:05 PM 40.0658 -94.1747 15° North 138 159 5,000 48 Level Kansas City Center
Sat 02:51:07 PM 40.1022 -94.1614 16° North 138 159 5,100 49 Climbing Kansas City Center
Sat 02:52:08 PM 40.1469 -94.1439 17° North 138 159 5,100  Level Kansas City Center
Sat 02:53:09 PM 40.1839 -94.1292 17° North 138 159 5,100  Level Kansas City Center
Sat 02:54:10 PM 40.2203 -94.1128 19° North 138 159 5,100 -49 Level Kansas City Center
Sat 02:55:12 PM 40.2564 -94.0986 17° North 138 159 5,000 -48 Descending Kansas City Center
Sat 02:56:16 PM 40.2942 -94.0850 15° North 138 159 5,000 48 Level Kansas City Center
Sat 02:57:17 PM 40.3308 -94.0733 14° North 138 159 5,100 49 Climbing Kansas City Center
Sat 02:58:18 PM 40.3753 -94.0544 18° North 138 159 5,100  Level Kansas City Center
Sat 02:58:58 PM 40.3975 -94.0475 13° North 140 161 5,100  Level Minneapolis Center
Sat 03:00:00 PM 40.4367 -94.0336 15° North 140 161 5,100  Level Minneapolis Center
Sat 03:01:02 PM 40.4764 -94.0178 17° North 144 166 5,100  Level Minneapolis Center
Sat 03:02:04 PM 40.5242 -93.9997 16° North 145 167 5,100  Level Minneapolis Center
Sat 03:03:05 PM 40.5636 -93.9858 15° North 145 167 5,100 -49 Level Minneapolis Center
Sat 03:04:07 PM 40.6033 -93.9725 14° North 145 167 5,000 -48 Descending Minneapolis Center
Sat 03:05:09 PM 40.6433 -93.9592 14° North 146 168 5,000  Level Minneapolis Center
Sat 03:06:11 PM 40.6825 -93.9431 17° North 147 169 5,000 48 Level Minneapolis Center
Sat 03:07:13 PM 40.7211 -93.9286 16° North 147 169 5,100 48 Climbing Minneapolis Center
Sat 03:08:15 PM 40.7681 -93.9114 16° North 147 169 5,100  Level Minneapolis Center
Sat 03:09:17 PM 40.8081 -93.8969 15° North 148 170 5,100  Level Minneapolis Center
Sat 03:10:18 PM 40.8483 -93.8836 14° North 149 171 5,100 -68 Level Minneapolis Center
Sat 03:10:45 PM 40.8761 -93.8686 22° Northeast 148 170 5,000  Descending Minneapolis Center
Sat 03:11:20 PM 40.8911 -93.8664 North 149 171 5,100 90 Climbing Minneapolis Center
Sat 03:11:52 PM 40.9175 -93.8486 27° Northeast 146 168 5,100 97 Level Minneapolis Center
Sat 03:12:22 PM 40.9328 -93.8494 358° North 149 171 5,200  Climbing Minneapolis Center
Sat 03:12:46 PM 40.9550 -93.8339 28° Northeast 145 167 5,100  Descending Minneapolis Center
Sat 03:13:24 PM 40.9722 -93.8347 358° North 148 170 5,200  Climbing Minneapolis Center
Sat 03:13:47 PM 40.9944 -93.8194 27° Northeast 149 171 5,100 -97 Descending Minneapolis Center
Sat 03:14:26 PM 41.0122 -93.8189 North 149 171 5,100  Level Minneapolis Center
Sat 03:14:48 PM 41.0339 -93.8050 26° Northeast 149 171 5,100  Level Minneapolis Center
Sat 03:15:28 PM 41.0539 -93.8014 North 148 170 5,100  Level Minneapolis Center
Sat 03:15:48 PM 41.0731 -93.7875 29° Northeast 147 169 5,100  Level Minneapolis Center
Sat 03:16:29 PM 41.0947 -93.7889 357° North 148 170 5,100  Level Minneapolis Center
Sat 03:16:49 PM 41.1128 -93.7756 29° Northeast 148 170 5,100  Level Minneapolis Center
Sat 03:17:33 PM 41.1367 -93.7725 North 148 170 5,100  Level Minneapolis Center
Sat 03:17:50 PM 41.1519 -93.7611 29° Northeast 148 170 5,100  Level Minneapolis Center
Sat 03:18:34 PM 41.1769 -93.7572 North 148 170 5,100 91 Level Minneapolis Center
Sat 03:18:56 PM 41.1978 -93.7436 26° Northeast 149 171 5,200  Climbing Minneapolis Center
Sat 03:19:36 PM 41.2194 -93.7417 North 148 170 5,100 -98 Descending Minneapolis Center
Sat 03:19:57 PM 41.2392 -93.7289 26° Northeast 148 170 5,100 73 Level Minneapolis Center
Sat 03:20:58 PM 41.2786 -93.7142 16° North 149 171 5,200 50 Climbing Minneapolis Center
Sat 03:21:58 PM 41.3181 -93.6994 16° North 148 170 5,200  Level Minneapolis Center
Sat 03:22:41 PM 41.3422 -93.6953 North 149 171 5,200  Level Minneapolis Center
Sat 03:22:59 PM 41.3617 -93.6819 27° Northeast 152 175 5,200 -97 Level Minneapolis Center
Sat 03:23:43 PM 41.3825 -93.6786 North 149 171 5,100 -100 Descending Minneapolis Center
Sat 03:23:59 PM 41.4011 -93.6644 30° Northeast 151 174 5,100  Level Minneapolis Center
Sat 03:24:44 PM 41.4219 -93.6600 North 149 171 5,100  Level Minneapolis Center
Sat 03:25:00 PM 41.4403 -93.6467 29° Northeast 152 175 5,100 -78 Level Minneapolis Center
Sat 03:26:01 PM 41.4819 -93.6375 North 150 173 5,000  Descending Minneapolis Center
Sat 03:26:48 PM 41.5069 -93.6392 357° North 150 173 5,100 200 Climbing Minneapolis Center
Sat 03:27:01 PM 41.5236 -93.6283 26° Northeast 147 169 5,200 98 Climbing Minneapolis Center
Sat 03:27:49 PM 41.5503 -93.6325 353° North 149 171 5,200  Level Minneapolis Center
Sat 03:28:02 PM 41.5653 -93.6217 28° Northeast 147 169 5,200  Level Minneapolis Center
Sat 03:28:51 PM 41.5914 -93.6236 357° North 149 171 5,200  Level Minneapolis Center
Sat 03:29:03 PM 41.6067 -93.6122 29° Northeast 151 174 5,200  Level Minneapolis Center
Sat 03:29:53 PM 41.6361 -93.6153 356° North 150 173 5,200 -100 Level Minneapolis Center
Sat 03:30:03 PM 41.6483 -93.6058 30° Northeast 154 177 5,100 -97 Descending Minneapolis Center
Sat 03:30:55 PM 41.6786 -93.6094 355° North 150 173 5,100  Level Minneapolis Center
Sat 03:31:56 PM 41.7178 -93.5906 20° North 150 173 5,100 49 Level Minneapolis Center
Sat 03:32:58 PM 41.7625 -93.5858 North 150 173 5,200  Climbing Minneapolis Center
Sat 03:34:06 PM 41.8125 -93.5711 12° North 151 174 5,100  Descending Minneapolis Center
Sat 03:35:01 PM 41.8456 -93.5728 358° North 150 173 5,200 51 Climbing Minneapolis Center
Sat 03:36:03 PM 41.8914 -93.5661 North 150 173 5,200 -94 Level Minneapolis Center
Sat 03:37:08 PM 41.9436 -93.5511 12° North 154 177 5,000  Descending Minneapolis Center
Sat 03:38:06 PM 41.9753 -93.5500 North 151 174 5,200 50 Climbing Minneapolis Center
Sat 03:39:08 PM 42.0214 -93.5422 North 152 175 5,100  Descending Minneapolis Center
Sat 03:40:09 PM 42.0633 -93.5342 North 152 175 5,200  Climbing Minneapolis Center
Sat 03:41:11 PM 42.1064 -93.5272 North 153 176 5,100 -48 Descending Minneapolis Center
Sat 03:42:13 PM 42.1519 -93.5186 North 154 177 5,100 49 Level Minneapolis Center
Sat 03:43:14 PM 42.1931 -93.5122 North 153 176 5,200  Climbing Minneapolis Center
Sat 03:44:16 PM 42.2350 -93.5028 North 153 176 5,100 -48 Descending Minneapolis Center
Sat 03:45:18 PM 42.2775 -93.4950 North 153 176 5,100 49 Level Minneapolis Center
Sat 03:46:19 PM 42.3219 -93.4861 North 153 176 5,200 49 Climbing Minneapolis Center
Sat 03:47:21 PM 42.3664 -93.4786 North 153 176 5,200  Level Minneapolis Center
Sat 03:48:23 PM 42.4075 -93.4708 North 154 177 5,200 -48 Level Minneapolis Center
Sat 03:49:25 PM 42.4494 -93.4631 North 154 177 5,100  Descending Minneapolis Center
Sat 03:50:26 PM 42.4911 -93.4547 North 154 177 5,200  Climbing Minneapolis Center
Sat 03:51:28 PM 42.5333 -93.4444 10° North 154 177 5,100 -48 Descending Minneapolis Center
Sat 03:52:30 PM 42.5847 -93.4372 North 154 177 5,100 -48 Level Minneapolis Center
Sat 03:53:32 PM 42.6292 -93.4292 North 154 177 5,000  Descending Minneapolis Center
Sat 03:54:33 PM 42.6689 -93.4225 North 154 177 5,100 98 Climbing Minneapolis Center
Sat 03:55:35 PM 42.7083 -93.4131 10° North 153 176 5,200 48 Climbing Minneapolis Center
Sat 03:56:37 PM 42.7486 -93.4050 North 152 175 5,200  Level Minneapolis Center
Sat 03:57:39 PM 42.7972 -93.3956 North 151 174 5,200  Level Minneapolis Center
Sat 03:58:40 PM 42.8386 -93.3889 North 151 174 5,200  Level Minneapolis Center
Sat 03:59:44 PM 42.8797 -93.3792 10° North 151 174 5,200  Level Minneapolis Center
Sat 04:00:46 PM 42.9214 -93.3733 North 151 174 5,200 -48 Level Minneapolis Center
Sat 04:01:48 PM 42.9631 -93.3642 North 151 174 5,100  Descending Minneapolis Center
Sat 04:02:49 PM 43.0128 -93.3533 North 151 174 5,200  Climbing Minneapolis Center
Sat 04:03:51 PM 43.0544 -93.3422 11° North 151 174 5,100 -48 Descending Minneapolis Center
Sat 04:04:53 PM 43.0961 -93.3325 10° North 151 174 5,100 -49 Level Minneapolis Center
Sat 04:05:00 PM 43.0958 -93.3137 10° North  Level FlightAware Approximate
Sat 04:05:54 PM 43.1369 -93.3203 12° North 151 174 5,000  Level Minneapolis Center
Sat 04:06:56 PM 43.1789 -93.3131 North 151 174 5,000 48 Level Minneapolis Center
Sat 04:07:58 PM 43.2200 -93.3017 11° North 151 174 5,100 97 Climbing Minneapolis Center
Sat 04:09:00 PM 43.2683 -93.2911 North 151 174 5,200 49 Climbing Minneapolis Center
Sat 04:10:01 PM 43.3092 -93.2811 10° North 151 174 5,200 -49 Level Minneapolis Center
Sat 04:11:03 PM 43.3519 -93.2742 North 151 174 5,100 -48 Descending Minneapolis Center
Sat 04:12:05 PM 43.3936 -93.2656 North 151 174 5,100  Level Minneapolis Center
Sat 04:13:07 PM 43.4350 -93.2539 12° North 151 174 5,100  Level Minneapolis Center
Sat 04:14:09 PM 43.4781 -93.2422 11° North 152 175 5,100  Level Minneapolis Center
Sat 04:15:11 PM 43.5281 -93.2339 North 153 176 5,100  Level Minneapolis Center
Sat 04:16:12 PM 43.5675 -93.2269 North 153 176 5,100  Level Minneapolis Center
Sat 04:17:14 PM 43.6092 -93.2131 14° North 152 175 5,100  Level Minneapolis Center
Sat 04:18:16 PM 43.6511 -93.2036 North 152 175 5,100  Level Minneapolis Center
Sat 04:19:18 PM 43.6928 -93.1947 North 152 175 5,100  Level Minneapolis Center
Sat 04:20:20 PM 43.7347 -93.1839 11° North 152 175 5,100  Level Minneapolis Center
Sat 04:21:22 PM 43.7850 -93.1728 North 153 176 5,100 48 Level Minneapolis Center
Sat 04:22:24 PM 43.8267 -93.1592 13° North 152 175 5,200  Climbing Minneapolis Center
Sat 04:23:26 PM 43.8728 -93.1486 North 153 176 5,100 -49 Descending Minneapolis Center
Sat 04:24:27 PM 43.9147 -93.1386 10° North 153 176 5,100  Level Minneapolis Center
Sat 04:25:29 PM 43.9606 -93.1261 11° North 154 177 5,100  Level Minneapolis Center
Sat 04:26:31 PM 44.0025 -93.1161 10° North 154 177 5,100 48 Level Minneapolis Center
Sat 04:27:33 PM 44.0489 -93.1069 North 154 177 5,200 48 Climbing Minneapolis Center
Sat 04:28:35 PM 44.0908 -93.0953 11° North 155 178 5,200 -48 Level Minneapolis Center
Sat 04:29:37 PM 44.1358 -93.0842 10° North 155 178 5,100 -48 Descending Minneapolis Center
Sat 04:30:39 PM 44.1783 -93.0750 North 155 178 5,100 48 Level Minneapolis Center
Sat 04:31:41 PM 44.2242 -93.0631 11° North 155 178 5,200 48 Climbing Minneapolis Center
Sat 04:32:43 PM 44.2667 -93.0531 10° North 156 180 5,200 -146 Level Minneapolis Center
Sat 04:33:44 PM 44.3081 -93.0425 10° North 155 178 4,900 -390 Descending Minneapolis Center
Sat 04:34:46 PM 44.3536 -93.0297 11° North 155 178 4,400 -387 Descending Minneapolis Center
Sat 04:35:48 PM 44.3956 -93.0167 13° North 155 178 4,100 -339 Descending Minneapolis Center
Sat 04:36:50 PM 44.4381 -93.0064 10° North 155 178 3,700 -339 Descending Minneapolis Center
Sat 04:37:52 PM 44.4808 -92.9967 North 155 178 3,400 -242 Descending Minneapolis Center
Sat 04:38:54 PM 44.5236 -92.9833 13° North 156 180 3,200 -145 Descending Minneapolis Center
Sat 04:39:56 PM 44.5658 -92.9733 10° North 156 180 3,100 -48 Descending Minneapolis Center
Sat 04:40:58 PM 44.6142 -92.9608 10° North 152 175 3,100 48 Level Minneapolis Center
Sat 04:42:00 PM 44.6536 -92.9500 11° North 146 168 3,200 48 Climbing Minneapolis Center
Sat 04:43:02 PM 44.6950 -92.9375 12° North 150 173 3,200 -48 Level Minneapolis Center
Sat 04:44:04 PM 44.7375 -92.9269 10° North 150 173 3,100 -48 Descending Minneapolis Center
Sat 04:45:06 PM 44.7772 -92.9142 13° North 150 173 3,100  Level Minneapolis Center
Sat 04:46:08 PM 44.8264 -92.9008 11° North 150 173 3,100  Level Minneapolis Center
Sat 04:47:10 PM 44.8669 -92.8906 10° North 150 173 3,100 -48 Level Minneapolis Center
Sat 04:48:12 PM 44.9072 -92.8806 10° North 150 173 3,000 -242 Descending Minneapolis Center
Sat 04:49:14 PM 44.9464 -92.8689 12° North 149 171 2,600 -484 Descending Minneapolis Center
Sat 04:50:16 PM 44.9856 -92.8561 13° North 147 169 2,000 -435 Descending Minneapolis Center
Sat 04:51:18 PM 45.0128 -92.8328 31° Northeast 113 130 1,700 -387 Descending Minneapolis Center
Sat 04:52:20 PM 45.0044 -92.8500 236° Southwest 95 109 1,200 -484 Descending Minneapolis Center

Login

Don't have an account? Register now (free) for customized features, flight alerts, and more!